createdAt,value
2023-05-10T00:01:11.095Z,99.90
2023-05-10T00:03:37.958Z,99.90
2023-05-10T00:06:04.857Z,99.90
2023-05-10T00:08:31.587Z,99.90
2023-05-10T00:10:58.264Z,99.90
2023-05-10T00:13:25.001Z,99.90
2023-05-10T00:15:51.716Z,99.90
2023-05-10T00:18:18.409Z,99.90
2023-05-10T00:20:46.982Z,99.90
2023-05-10T00:23:13.617Z,99.90
2023-05-10T00:25:40.393Z,99.90
2023-05-10T00:28:07.090Z,99.90
2023-05-10T00:30:33.750Z,99.90
2023-05-10T00:33:02.159Z,99.90
2023-05-10T00:35:29.101Z,99.90
2023-05-10T00:37:55.772Z,99.90
2023-05-10T00:40:22.465Z,99.90
2023-05-10T00:42:54.111Z,99.90
2023-05-10T00:45:21.522Z,99.90
2023-05-10T00:47:48.391Z,99.90
2023-05-10T00:50:15.822Z,99.90
2023-05-10T00:52:43.235Z,99.90
2023-05-10T00:55:11.710Z,99.90
2023-05-10T00:57:38.644Z,99.90
2023-05-10T01:00:05.913Z,99.90
2023-05-10T01:02:34.204Z,99.90
2023-05-10T01:05:01.075Z,99.90
2023-05-10T01:07:27.753Z,99.90
2023-05-10T01:09:54.448Z,99.90
2023-05-10T01:12:21.907Z,99.90
2023-05-10T01:14:49.231Z,99.90
2023-05-10T01:17:17.135Z,99.90
2023-05-10T01:19:43.888Z,99.90
2023-05-10T01:22:16.748Z,99.90
2023-05-10T01:24:57.983Z,99.90
2023-05-10T01:27:39.561Z,99.90
2023-05-10T01:30:15.627Z,99.90
2023-05-10T01:32:45.267Z,99.90
2023-05-10T01:35:19.940Z,99.90
2023-05-10T01:38:07.544Z,99.90
2023-05-10T01:40:40.595Z,99.90
2023-05-10T01:43:09.559Z,99.90
2023-05-10T01:46:05.512Z,99.90
2023-05-10T01:48:33.214Z,99.90
2023-05-10T01:51:00.677Z,99.90
2023-05-10T01:53:28.201Z,99.90
2023-05-10T01:55:56.173Z,99.90
2023-05-10T01:58:28.280Z,99.90
2023-05-10T02:00:55.115Z,99.90
2023-05-10T02:03:23.071Z,99.90
2023-05-10T02:05:50.317Z,99.90
2023-05-10T02:08:18.475Z,99.90
2023-05-10T02:10:46.429Z,99.90
2023-05-10T02:13:13.532Z,99.90
2023-05-10T02:15:41.083Z,99.90
2023-05-10T02:18:08.737Z,99.90
2023-05-10T02:20:36.182Z,99.90
2023-05-10T02:23:04.190Z,99.90
2023-05-10T02:25:31.281Z,99.90
2023-05-10T02:27:58.656Z,99.90
2023-05-10T02:30:25.640Z,99.90
2023-05-10T02:32:53.308Z,99.90
2023-05-10T02:35:20.216Z,99.90
2023-05-10T02:37:47.713Z,99.90
2023-05-10T02:40:17.189Z,99.90
2023-05-10T02:42:45.399Z,99.90
2023-05-10T02:45:13.317Z,99.90
2023-05-10T02:47:40.234Z,99.90
2023-05-10T02:50:07.320Z,99.90
2023-05-10T02:52:39.850Z,99.90
2023-05-10T02:55:07.127Z,99.90
2023-05-10T02:57:35.045Z,99.90
2023-05-10T03:00:02.459Z,99.90
2023-05-10T03:02:31.383Z,99.90
2023-05-10T03:04:58.149Z,99.90
2023-05-10T03:07:25.371Z,99.90
2023-05-10T03:09:52.161Z,99.90
2023-05-10T03:12:21.685Z,99.90
2023-05-10T03:14:48.380Z,99.90
2023-05-10T03:17:27.280Z,99.90
2023-05-10T03:19:55.285Z,99.90
2023-05-10T03:22:25.562Z,99.90
2023-05-10T03:24:54.519Z,99.90
2023-05-10T03:27:21.797Z,99.90
2023-05-10T03:29:48.752Z,99.90
2023-05-10T03:32:15.483Z,99.90
2023-05-10T03:34:43.303Z,99.90
2023-05-10T03:37:10.504Z,99.90
2023-05-10T03:39:37.470Z,99.90
2023-05-10T03:42:07.032Z,99.90
2023-05-10T03:44:34.332Z,99.90
2023-05-10T03:47:01.112Z,99.90
2023-05-10T03:49:27.796Z,99.90
2023-05-10T03:51:54.532Z,99.90
2023-05-10T03:54:21.334Z,99.90
2023-05-10T03:56:49.011Z,99.90
2023-05-10T03:59:16.962Z,99.90
2023-05-10T04:01:43.741Z,99.90
2023-05-10T04:04:10.847Z,99.90
2023-05-10T04:06:38.757Z,99.90
2023-05-10T04:09:05.594Z,99.90
2023-05-10T04:11:32.316Z,99.90
2023-05-10T04:13:59.041Z,99.90
2023-05-10T04:16:26.076Z,99.90
2023-05-10T04:18:52.835Z,99.90
2023-05-10T04:21:19.516Z,99.90
2023-05-10T04:23:46.231Z,99.90
2023-05-10T04:26:13.658Z,99.90
2023-05-10T04:28:40.397Z,99.90
2023-05-10T04:31:08.026Z,99.90
2023-05-10T04:33:35.406Z,99.90
2023-05-10T04:36:02.719Z,99.90
2023-05-10T04:38:29.384Z,99.90
2023-05-10T04:41:04.562Z,99.90
2023-05-10T04:43:31.538Z,99.90
2023-05-10T04:45:58.324Z,99.90
2023-05-10T04:48:25.041Z,99.90
2023-05-10T04:50:51.880Z,99.90
2023-05-10T04:53:18.576Z,99.90
2023-05-10T04:55:45.377Z,99.90
2023-05-10T04:58:12.030Z,99.90
2023-05-10T05:00:38.663Z,99.90
2023-05-10T05:03:05.378Z,99.90
2023-05-10T05:05:32.114Z,99.90
2023-05-10T05:07:58.749Z,99.90
2023-05-10T05:10:25.380Z,99.90
2023-05-10T05:12:52.109Z,99.90
2023-05-10T05:15:18.731Z,99.90
2023-05-10T05:17:45.577Z,99.90
2023-05-10T05:20:12.525Z,99.90
2023-05-10T05:22:39.675Z,99.90
2023-05-10T05:25:06.957Z,99.90
2023-05-10T05:27:33.631Z,99.90
2023-05-10T05:30:00.330Z,99.90
2023-05-10T05:32:27.132Z,99.90
2023-05-10T05:34:53.859Z,99.90
2023-05-10T05:37:21.876Z,99.90
2023-05-10T05:39:48.505Z,99.90
2023-05-10T05:42:17.393Z,99.90
2023-05-10T05:44:44.135Z,99.90
2023-05-10T05:47:11.429Z,99.90
2023-05-10T05:49:38.145Z,99.90
2023-05-10T05:52:05.086Z,99.90
2023-05-10T05:54:32.148Z,99.90
2023-05-10T05:57:01.068Z,99.90
2023-05-10T05:59:28.371Z,99.90
2023-05-10T06:01:55.422Z,99.90
2023-05-10T06:04:22.219Z,99.90
2023-05-10T06:06:48.927Z,99.90
2023-05-10T06:09:15.846Z,99.90
2023-05-10T06:11:42.552Z,99.90
2023-05-10T06:14:09.279Z,99.90
2023-05-10T06:16:36.237Z,99.90
2023-05-10T06:19:03.275Z,99.90
2023-05-10T06:21:29.984Z,99.90
2023-05-10T06:23:56.678Z,99.90
2023-05-10T06:26:23.417Z,99.90
2023-05-10T06:28:50.261Z,99.90
2023-05-10T06:31:17.110Z,99.90
2023-05-10T06:33:43.862Z,99.90
2023-05-10T06:36:10.623Z,99.90
2023-05-10T06:38:37.663Z,99.90
2023-05-10T06:41:04.331Z,99.90
2023-05-10T06:43:31.021Z,99.90
2023-05-10T06:45:57.756Z,99.90
2023-05-10T06:48:24.401Z,99.90
2023-05-10T06:50:51.653Z,99.90
2023-05-10T06:53:18.709Z,99.90
2023-05-10T06:55:45.534Z,99.90
2023-05-10T06:58:12.218Z,99.90
2023-05-10T07:00:41.494Z,99.90
2023-05-10T07:03:08.465Z,99.90
2023-05-10T07:05:35.519Z,99.90
2023-05-10T07:08:02.535Z,99.90
2023-05-10T07:10:29.294Z,99.90
2023-05-10T07:12:55.951Z,99.90
2023-05-10T07:15:22.768Z,99.90
2023-05-10T07:17:49.506Z,99.90
2023-05-10T07:20:16.339Z,99.90
2023-05-10T07:22:43.197Z,99.90
2023-05-10T07:25:10.030Z,99.90
2023-05-10T07:27:36.821Z,99.90
2023-05-10T07:30:03.624Z,99.90
2023-05-10T07:32:30.380Z,99.90
2023-05-10T07:34:57.151Z,99.90
2023-05-10T07:37:23.883Z,99.90
2023-05-10T07:39:50.554Z,99.90
2023-05-10T07:42:17.233Z,99.90
2023-05-10T07:44:44.301Z,99.90
2023-05-10T07:47:11.027Z,99.90
2023-05-10T07:49:37.796Z,99.90
2023-05-10T07:52:04.582Z,99.90
2023-05-10T07:54:31.393Z,99.90
2023-05-10T07:56:58.177Z,99.90
2023-05-10T07:59:24.844Z,99.90
2023-05-10T08:01:51.701Z,99.90
2023-05-10T08:04:18.526Z,99.90
2023-05-10T08:06:45.317Z,99.90
2023-05-10T08:09:12.022Z,99.90
2023-05-10T08:11:38.791Z,99.90
2023-05-10T08:14:05.540Z,99.90
2023-05-10T08:16:33.300Z,99.90
2023-05-10T08:19:00.205Z,99.90
2023-05-10T08:21:27.205Z,99.90
2023-05-10T08:23:53.989Z,99.90
2023-05-10T08:26:22.310Z,99.90
2023-05-10T08:28:48.972Z,99.90
2023-05-10T08:31:16.514Z,99.90
2023-05-10T08:33:44.517Z,99.90
2023-05-10T08:36:11.532Z,99.90
2023-05-10T08:38:38.740Z,99.90
2023-05-10T08:41:06.487Z,99.90
2023-05-10T08:43:33.237Z,99.90
2023-05-10T08:46:04.233Z,99.90
2023-05-10T08:48:31.997Z,99.90
2023-05-10T08:51:00.796Z,99.90
2023-05-10T08:53:28.275Z,99.90
2023-05-10T08:55:55.501Z,99.90
2023-05-10T08:58:22.344Z,99.90
2023-05-10T09:00:49.979Z,99.90
2023-05-10T09:03:17.016Z,99.90
2023-05-10T09:05:45.535Z,99.90
2023-05-10T09:08:12.897Z,99.90
2023-05-10T09:10:40.667Z,99.90
2023-05-10T09:13:08.342Z,99.90
2023-05-10T09:15:35.368Z,99.90
2023-05-10T09:18:03.353Z,99.90
2023-05-10T09:20:30.392Z,99.90
2023-05-10T09:22:57.049Z,99.90
2023-05-10T09:25:23.734Z,99.90
2023-05-10T09:27:50.464Z,99.90
2023-05-10T09:30:18.061Z,99.90
2023-05-10T09:32:45.757Z,99.90
2023-05-10T09:35:13.358Z,99.90
2023-05-10T09:37:42.338Z,99.90
2023-05-10T09:40:11.910Z,99.90
2023-05-10T09:42:38.753Z,99.90
2023-05-10T09:45:06.010Z,99.90
2023-05-10T09:47:33.871Z,99.90
2023-05-10T09:50:04.766Z,99.90
2023-05-10T09:52:32.201Z,99.90
2023-05-10T09:54:59.055Z,99.90
2023-05-10T09:57:29.189Z,99.90
2023-05-10T09:59:55.989Z,99.90
2023-05-10T10:02:28.949Z,99.90
2023-05-10T10:04:56.195Z,99.90
2023-05-10T10:07:23.751Z,99.90
2023-05-10T10:09:50.602Z,99.90
2023-05-10T10:12:17.385Z,99.90
2023-05-10T10:14:44.239Z,99.90
2023-05-10T10:17:11.395Z,99.90
2023-05-10T10:19:38.400Z,99.90
2023-05-10T10:22:05.652Z,99.90
2023-05-10T10:24:32.335Z,99.90
2023-05-10T10:27:09.555Z,99.90
2023-05-10T10:29:50.809Z,99.90
2023-05-10T10:32:28.885Z,99.90
2023-05-10T10:34:56.554Z,99.90
2023-05-10T10:37:23.256Z,99.90
2023-05-10T10:39:50.739Z,99.90
2023-05-10T10:42:37.413Z,99.90
2023-05-10T10:45:13.477Z,99.90
2023-05-10T10:47:40.260Z,99.90
2023-05-10T10:50:08.414Z,99.90
2023-05-10T10:52:39.775Z,99.90
2023-05-10T10:55:08.093Z,99.90
2023-05-10T10:57:43.705Z,99.90
2023-05-10T11:00:24.161Z,99.90
2023-05-10T11:02:54.782Z,99.90
2023-05-10T11:05:34.955Z,99.90
2023-05-10T11:08:07.221Z,99.90
2023-05-10T11:10:34.033Z,99.90
2023-05-10T11:13:05.131Z,99.90
2023-05-10T11:15:32.923Z,99.90
2023-05-10T11:17:59.740Z,99.90
2023-05-10T11:20:34.291Z,99.90
2023-05-10T11:23:11.824Z,99.90
2023-05-10T11:25:42.265Z,99.90
2023-05-10T11:28:09.021Z,99.90
2023-05-10T11:30:36.447Z,99.90
2023-05-10T11:33:03.222Z,99.90
2023-05-10T11:35:29.923Z,99.90
2023-05-10T11:37:56.745Z,99.90
2023-05-10T11:40:25.465Z,99.90
2023-05-10T11:42:52.302Z,99.90
2023-05-10T11:45:19.010Z,99.90
2023-05-10T11:47:45.725Z,99.90
2023-05-10T11:50:12.464Z,99.90
2023-05-10T11:52:39.186Z,99.90
2023-05-10T11:55:06.204Z,99.90
2023-05-10T11:57:32.985Z,99.90
2023-05-10T12:00:00.285Z,99.90
2023-05-10T12:02:27.142Z,99.90
2023-05-10T12:04:54.036Z,99.90
2023-05-10T12:07:20.805Z,99.90
2023-05-10T12:10:06.818Z,99.90
2023-05-10T12:12:40.536Z,99.90
2023-05-10T12:15:11.487Z,99.90
2023-05-10T12:17:40.260Z,99.90
2023-05-10T12:20:19.653Z,99.90
2023-05-10T12:22:53.554Z,99.90
2023-05-10T12:25:21.222Z,99.90
2023-05-10T12:27:59.004Z,99.90
2023-05-10T12:30:26.803Z,99.90
2023-05-10T12:32:53.702Z,99.70
2023-05-10T12:35:24.963Z,99.90
2023-05-10T12:37:52.195Z,98.90
2023-05-10T12:40:19.123Z,99.90
2023-05-10T12:42:46.091Z,98.90
2023-05-10T12:45:13.150Z,98.50
2023-05-10T12:47:43.046Z,98.80
2023-05-10T12:50:11.367Z,97.80
2023-05-10T12:52:38.232Z,97.40
2023-05-10T12:55:05.349Z,96.60
2023-05-10T12:57:32.061Z,95.40
2023-05-10T12:59:58.790Z,94.20
2023-05-10T13:02:25.637Z,94.10
2023-05-10T13:04:52.463Z,94.10
2023-05-10T13:07:19.350Z,94.20
2023-05-10T13:09:46.408Z,93.50
2023-05-10T13:12:13.216Z,93.30
2023-05-10T13:14:41.477Z,93.50
2023-05-10T13:17:08.194Z,92.20
2023-05-10T13:19:34.968Z,91.70
2023-05-10T13:22:01.697Z,91.40
2023-05-10T13:24:28.440Z,90.70
2023-05-10T13:26:55.166Z,90.50
2023-05-10T13:29:23.412Z,90.60
2023-05-10T13:31:50.322Z,91.70
2023-05-10T13:34:17.365Z,92.30
2023-05-10T13:36:44.031Z,93.90
2023-05-10T13:39:10.675Z,94.20
2023-05-10T13:41:37.983Z,95.00
2023-05-10T13:44:04.588Z,95.70
2023-05-10T13:46:31.818Z,97.10
2023-05-10T13:48:58.475Z,98.00
2023-05-10T13:51:25.603Z,98.60
2023-05-10T13:53:53.024Z,99.40
2023-05-10T13:56:19.714Z,99.50
2023-05-10T13:58:46.441Z,99.60
2023-05-10T14:01:13.188Z,99.20
2023-05-10T14:03:40.433Z,97.70
2023-05-10T14:06:08.397Z,97.30
2023-05-10T14:08:35.626Z,95.80
2023-05-10T14:11:02.423Z,94.20
2023-05-10T14:13:29.168Z,92.90
2023-05-10T14:15:56.149Z,92.90
2023-05-10T14:18:22.943Z,91.90
2023-05-10T14:20:49.880Z,91.40
2023-05-10T14:23:16.581Z,92.10
2023-05-10T14:25:43.512Z,92.50
2023-05-10T14:28:10.360Z,93.00
2023-05-10T14:30:37.519Z,92.40
2023-05-10T14:33:04.325Z,92.70
2023-05-10T14:35:32.157Z,93.10
2023-05-10T14:37:59.585Z,94.30
2023-05-10T14:40:26.957Z,95.30
2023-05-10T14:42:54.057Z,97.20
2023-05-10T14:45:21.413Z,97.70
2023-05-10T14:47:48.178Z,98.00
2023-05-10T14:50:28.233Z,98.80
2023-05-10T14:53:01.736Z,99.70
2023-05-10T14:55:28.556Z,99.90
2023-05-10T14:57:55.317Z,99.90
2023-05-10T15:00:22.077Z,99.90
2023-05-10T15:02:49.477Z,99.90
2023-05-10T15:05:17.016Z,99.90
2023-05-10T15:07:44.705Z,99.90
2023-05-10T15:10:12.309Z,99.90
2023-05-10T15:12:39.111Z,99.90
2023-05-10T15:15:06.347Z,99.90
2023-05-10T15:17:33.086Z,99.90
2023-05-10T15:19:59.738Z,99.90
2023-05-10T15:22:26.623Z,99.90
2023-05-10T15:24:53.615Z,99.90
2023-05-10T15:27:20.232Z,99.90
2023-05-10T15:29:46.859Z,99.90
2023-05-10T15:32:13.550Z,99.90
2023-05-10T15:34:40.126Z,99.90
2023-05-10T15:37:07.170Z,99.90
2023-05-10T15:39:33.874Z,99.90
2023-05-10T15:42:00.546Z,99.90
2023-05-10T15:47:03.854Z,99.90
2023-05-10T15:49:30.748Z,99.90
2023-05-10T15:51:57.547Z,99.90
2023-05-10T15:54:24.266Z,99.90
2023-05-10T15:56:51.197Z,99.90
2023-05-10T15:59:17.951Z,99.90
2023-05-10T16:01:44.830Z,99.90
2023-05-10T16:04:11.544Z,99.90
2023-05-10T16:06:38.388Z,99.90
2023-05-10T16:09:05.040Z,99.90
2023-05-10T16:11:32.185Z,99.90
2023-05-10T16:13:59.662Z,99.90
2023-05-10T16:16:26.580Z,99.90
2023-05-10T16:18:53.394Z,99.90
2023-05-10T16:21:20.201Z,99.90
2023-05-10T16:23:46.905Z,99.90
2023-05-10T16:26:13.625Z,99.90
2023-05-10T16:28:41.098Z,99.90
2023-05-10T16:31:07.891Z,99.90
2023-05-10T16:33:34.589Z,99.90
2023-05-10T16:36:01.316Z,99.90
2023-05-10T16:38:28.293Z,99.90
2023-05-10T16:40:56.592Z,99.90
2023-05-10T16:43:25.301Z,99.90
2023-05-10T16:45:52.748Z,99.90
2023-05-10T16:48:19.585Z,99.90
2023-05-10T16:50:46.591Z,99.90
2023-05-10T16:53:13.386Z,99.90
2023-05-10T16:55:40.067Z,99.90
2023-05-10T16:58:06.836Z,99.90
2023-05-10T17:00:33.704Z,99.90
2023-05-10T17:03:00.580Z,99.90
2023-05-10T17:05:27.482Z,99.90
2023-05-10T17:07:54.746Z,99.90
2023-05-10T17:10:21.709Z,99.90
2023-05-10T17:12:48.498Z,99.90
2023-05-10T17:15:16.668Z,99.90
2023-05-10T17:17:43.808Z,99.90
2023-05-10T17:20:10.790Z,99.90
2023-05-10T17:22:37.683Z,99.90
2023-05-10T17:25:04.562Z,99.90
2023-05-10T17:27:31.426Z,99.90
2023-05-10T17:29:58.843Z,99.90
2023-05-10T17:32:26.006Z,99.90
2023-05-10T17:34:53.047Z,99.90
2023-05-10T17:37:19.864Z,99.90
2023-05-10T17:39:46.671Z,99.90
2023-05-10T17:42:14.770Z,99.90
2023-05-10T17:44:41.572Z,99.90
2023-05-10T17:47:08.301Z,99.90
2023-05-10T17:49:34.992Z,99.90
2023-05-10T17:52:01.716Z,99.90
2023-05-10T17:54:28.546Z,99.90
2023-05-10T17:56:55.438Z,99.90
2023-05-10T17:59:22.289Z,99.90
2023-05-10T18:01:49.144Z,99.90
2023-05-10T18:04:15.923Z,99.90
2023-05-10T18:06:42.680Z,99.90
2023-05-10T18:09:09.532Z,99.90
2023-05-10T18:11:36.714Z,99.90
2023-05-10T18:14:03.410Z,99.90
2023-05-10T18:16:30.307Z,99.90
2023-05-10T18:18:57.493Z,99.90
2023-05-10T18:21:24.307Z,99.90
2023-05-10T18:23:51.127Z,99.90
2023-05-10T18:26:19.530Z,99.90
2023-05-10T18:28:46.542Z,99.90
2023-05-10T18:31:13.276Z,99.90
2023-05-10T18:33:40.028Z,99.90
2023-05-10T18:36:07.932Z,99.90
2023-05-10T18:38:34.845Z,99.90
2023-05-10T18:41:01.683Z,99.90
2023-05-10T18:43:28.655Z,99.90
2023-05-10T18:45:55.487Z,99.90
2023-05-10T18:48:22.428Z,99.90
2023-05-10T18:50:50.039Z,99.90
2023-05-10T18:53:17.067Z,99.90
2023-05-10T18:55:44.813Z,99.90
2023-05-10T18:58:11.672Z,99.90
2023-05-10T19:00:38.553Z,99.90
2023-05-10T19:03:05.431Z,99.90
2023-05-10T19:05:32.223Z,99.90
2023-05-10T19:07:59.127Z,99.90
2023-05-10T19:10:26.301Z,99.90
2023-05-10T19:12:53.057Z,99.90
2023-05-10T19:15:21.752Z,99.90
2023-05-10T19:17:49.423Z,99.90
2023-05-10T19:20:16.614Z,99.90
2023-05-10T19:22:57.848Z,99.90
2023-05-10T19:25:29.425Z,99.90
2023-05-10T19:27:59.776Z,99.90
2023-05-10T19:30:27.071Z,99.90
2023-05-10T19:32:54.102Z,99.90
2023-05-10T19:35:20.974Z,99.90
2023-05-10T19:37:47.649Z,99.90
2023-05-10T19:40:15.766Z,99.90
2023-05-10T19:42:42.776Z,99.90
2023-05-10T19:45:09.891Z,99.90
2023-05-10T19:47:36.830Z,99.90
2023-05-10T19:50:03.936Z,99.90
2023-05-10T19:52:31.009Z,99.90
2023-05-10T19:54:57.741Z,99.90
2023-05-10T19:57:24.425Z,99.90
2023-05-10T19:59:51.041Z,99.90
2023-05-10T20:02:17.702Z,99.90
2023-05-10T20:04:45.040Z,99.90
2023-05-10T20:07:12.298Z,99.90
2023-05-10T20:09:39.211Z,99.90
2023-05-10T20:12:05.861Z,99.90
2023-05-10T20:14:32.593Z,99.90
2023-05-10T20:16:59.423Z,99.90
2023-05-10T20:19:26.300Z,99.90
2023-05-10T20:21:55.938Z,99.90
2023-05-10T20:24:22.820Z,99.90
2023-05-10T20:26:49.698Z,99.90
2023-05-10T20:29:19.927Z,99.90
2023-05-10T20:31:47.030Z,99.90
2023-05-10T20:34:13.969Z,99.90
2023-05-10T20:36:40.608Z,99.90
2023-05-10T20:39:07.280Z,99.90
2023-05-10T20:41:34.014Z,99.90
2023-05-10T20:44:01.190Z,99.90
2023-05-10T20:46:28.133Z,99.90
2023-05-10T20:48:54.906Z,99.90
2023-05-10T20:51:21.559Z,99.90
2023-05-10T20:53:48.308Z,99.90
2023-05-10T20:56:15.144Z,99.90
2023-05-10T20:58:41.883Z,99.90
2023-05-10T21:01:08.493Z,99.90
2023-05-10T21:03:35.404Z,99.90
2023-05-10T21:06:02.100Z,99.90
2023-05-10T21:08:28.993Z,99.90
2023-05-10T21:10:55.920Z,99.90
2023-05-10T21:13:22.598Z,99.90
2023-05-10T21:15:49.355Z,99.90
2023-05-10T21:18:16.060Z,99.90
2023-05-10T21:20:42.790Z,99.90
2023-05-10T21:23:09.457Z,99.90
2023-05-10T21:25:36.298Z,99.90
2023-05-10T21:28:03.140Z,99.90
2023-05-10T21:30:29.865Z,99.90
2023-05-10T21:32:59.996Z,99.90
2023-05-10T21:35:27.116Z,99.90
2023-05-10T21:37:53.969Z,99.90
2023-05-10T21:40:20.898Z,99.90
2023-05-10T21:42:50.865Z,99.90
2023-05-10T21:45:17.933Z,99.90
2023-05-10T21:47:44.726Z,99.90
2023-05-10T21:50:12.077Z,99.90
2023-05-10T21:52:39.124Z,99.90
2023-05-10T21:55:06.104Z,99.90
2023-05-10T21:57:32.902Z,99.90
2023-05-10T21:59:59.633Z,99.90
2023-05-10T22:02:26.497Z,99.90
2023-05-10T22:04:53.330Z,99.90
2023-05-10T22:07:20.032Z,99.90
2023-05-10T22:09:46.701Z,99.90
2023-05-10T22:12:13.406Z,99.90
2023-05-10T22:14:40.084Z,99.90
2023-05-10T22:17:06.803Z,99.90
2023-05-10T22:19:33.558Z,99.90
2023-05-10T22:22:00.194Z,99.90
2023-05-10T22:24:27.057Z,99.90
2023-05-10T22:26:54.398Z,99.90
2023-05-10T22:29:21.491Z,99.90
2023-05-10T22:31:48.144Z,99.90
2023-05-10T22:34:15.311Z,99.90
2023-05-10T22:36:42.207Z,99.90
2023-05-10T22:39:08.912Z,99.90
2023-05-10T22:41:35.833Z,99.90
2023-05-10T22:44:02.704Z,99.90
2023-05-10T22:46:29.648Z,99.90
2023-05-10T22:48:56.616Z,99.90
2023-05-10T22:51:23.305Z,99.90
2023-05-10T22:53:49.977Z,99.90
2023-05-10T22:56:16.649Z,99.90
2023-05-10T22:58:43.287Z,99.90
2023-05-10T23:01:10.044Z,99.90
2023-05-10T23:03:36.709Z,99.90
2023-05-10T23:06:03.644Z,99.90
2023-05-10T23:08:30.418Z,99.90
2023-05-10T23:10:57.120Z,99.90
2023-05-10T23:13:24.634Z,99.90
2023-05-10T23:15:51.425Z,99.90
2023-05-10T23:18:18.251Z,99.90
2023-05-10T23:20:44.915Z,99.90
2023-05-10T23:23:11.636Z,99.90
2023-05-10T23:25:38.390Z,99.90
2023-05-10T23:28:05.235Z,99.90
2023-05-10T23:30:31.937Z,99.90
2023-05-10T23:32:58.651Z,99.90
2023-05-10T23:35:25.524Z,99.90
2023-05-10T23:37:52.132Z,99.90
2023-05-10T23:40:18.991Z,99.90
2023-05-10T23:42:45.830Z,99.90
2023-05-10T23:45:12.463Z,99.90
2023-05-10T23:47:39.230Z,99.90
2023-05-10T23:50:06.413Z,99.90
2023-05-10T23:52:33.464Z,99.90
2023-05-10T23:55:00.145Z,99.90
2023-05-10T23:57:26.805Z,99.90
2023-05-10T23:59:53.505Z,99.90
